Tiempo atmosférico en la estación meteorológica de Madrid Aeropuerto, Madrid (609 m.)



Fecha
DESCASC
Temp. máxima en grados centígrados (hora)
DESCASC
Temp. mínima en grados centígrados (hora)
DESCASC
Temp. media en grados centígrados
DESCASC
Racha de viento máxima en m/sg (hora)
DESCASC
Velocidad máxima media en intervalos de 10 minutos(hora)
DESCASC
Precipitaciones diarias en mm
DESCASC
Precipitaciones de 00:00 a 06:00 en mm
DESCASC
Precipitaciones de 06:00 a 12:00 en mm
DESCASC
Precipitaciones de 12:00 a 18:00 en mm
DESCASC
Precipitaciones de 18:00 a 24:00 en mm
DESCASC
13-10-2019 25 (18:20) 12.7 (08:20) 18.8 11.39 (16:20) 5.56 (14:40) 0.1 0.1 0 0 0
12-10-2019 28.1 (16:20) 15.8 (09:10) 22 23.33 (21:30) 13.33 (20:50) 4.5 0 0 0 4.5
11-10-2019 28 (18:10) 12.6 (08:20) 20.3 6.67 (14:10) 3.89 (16:00) 0 0 0 0 0
10-10-2019 27.7 (18:10) 13.1 (00:00) 20.4 6.67 (13:00) 4.44 (02:00) 0 0 0 0 0
09-10-2019 29.6 (17:30) 12.4 (00:00) 21 8.89 (23:10) 5.28 (08:20) 0 0 0 0 0
08-10-2019 30.1 (18:00) 11.7 (00:00) 20.9 7.22 (17:00) 3.89 (03:00) 0 0 0 0 0
07-10-2019 29.8 (18:40) 12.1 (00:00) 20.9 5.83 (13:20) 3.33 (15:00) 0 0 0 0 0
06-10-2019 28.7 (17:10) 9.9 (00:00) 19.3 5.83 (12:10) 3.89 (22:00) 0 0 0 0 0
05-10-2019 28.3 (16:50) 10.7 (00:00) 19.5 8.89 (16:20) 3.33 (00:30) 0 0 0 0 0
04-10-2019 28.5 (17:50) 8.8 (00:00) 18.7 10.28 (15:20) 4.44 (16:10) 0 0 0 0 0
03-10-2019 26.2 (16:50) 8.5 (00:00) 17.4 5 (16:20) 3.06 (17:40) 0 0 0 0 0
02-10-2019 24.2 (17:30) 11.4 (00:00) 17.8 10.28 (04:40) 6.94 (04:00) 0 0 0 0 0
01-10-2019 27.7 (16:20) 10.2 (00:00) 19 13.89 (16:50) 9.17 (17:50) 0 0 0 0 0
30-09-2019 30.3 (16:40) 10 (00:00) 20.1 9.72 (16:20) 5.28 (18:10) 0 0 0 0 0
29-09-2019 30.5 (17:00) 9.7 (00:00) 20.1 8.89 (14:50) 5.56 (15:40) 0 0 0 0 0
28-09-2019 29 (16:50) 10.2 (00:00) 19.6 -- (--) -- (--) 0 0 0 0 0
27-09-2019 29.4 (17:10) 12 (00:00) 20.7 10.28 (17:10) 4.72 (16:40) 0 0 0 0 0
26-09-2019 28 (17:20) 12 (00:00) 20 8.89 (15:10) 4.17 (14:50) 0 0 0 0 0
25-09-2019 25.6 (18:10) 13.9 (00:00) 19.8 8.89 (00:30) 5.28 (00:30) 0 0 0 0 0
24-09-2019 27.6 (17:10) 10.5 (00:00) 19.1 15 (16:30) 6.39 (20:10) 0 0 0 0 0
23-09-2019 24.2 (17:40) 10.1 (00:00) 17.2 10.28 (18:40) 4.17 (15:50) 0 0 0 0 0
22-09-2019 24.1 (17:20) 15.1 (00:00) 19.6 11.67 (14:00) 6.94 (11:50) 2.2 0 2.2 0 0
21-09-2019 21.7 (15:00) 15 (00:00) 18.4 11.67 (13:00) 5.83 (01:40) 0.2 0 0 0.1 0.1
20-09-2019 25.7 (17:10) 16.3 (00:00) 21 20 (21:20) 11.94 (21:20) 10 0 0 0 10
19-09-2019 29.6 (17:00) 15.3 (00:00) 22.5 7.22 (17:30) 5 (19:50) 0 0 0 0 0
18-09-2019 28 (17:00) 15.9 (00:00) 21.9 6.67 (17:30) 3.61 (18:30) 0 0 0 0 0
17-09-2019 29.2 (16:50) 14.7 (00:00) 22 11.39 (20:30) 8.33 (20:30) 0 0 0 0 0

Gráficas

Temp. máximas Temp. mínimas Temp. medias Precipitaciones Rachas de viento máximas Velocidades máximas media en intervalos de 10 minutos

Datos horarios

Fecha y hora oficial Temperatura (ºC) Velocidad del viento (km/h) Dirección del viento Racha (km/h) Dirección de racha Precipitación (mm) Presión (hPa) Tendencia (hPa) Humedad (%)
2019-10-16 23:00:00 14.9 8 Sur 18 Sudoeste 0 951.2 0.4 46
2019-10-16 22:00:00 15.7 9 Sur 22 Sudoeste 0 951.2 0.6 41
2019-10-16 21:00:00 15.2 8 Sur 24 Sudoeste 0 950.9 0.8 39
2019-10-16 20:00:00 17 12 Sudoeste 26 Sudoeste 0 950.8 0.3 33
2019-10-16 19:00:00 18.6 18 Sudoeste 39 Sudoeste 0 950.6 -0.4 32
2019-10-16 18:00:00 19.3 17 Sudoeste 35 Sudoeste 0 950.1 -1.5 34
2019-10-16 17:00:00 19.5 18 Sudoeste 42 Sudoeste 0 950.5 -2 36
2019-10-16 16:00:00 19.1 19 Sudoeste 52 Sudoeste 0 951 -2.2 38
2019-10-16 15:00:00 18.6 16 Sudoeste 33 Sudoeste 0 951.6 -2 41
2019-10-16 14:00:00 17.4 15 Sudoeste 33 Sudoeste 0 952.5 -1.4 48
2019-10-16 13:00:00 16.1 15 Sudoeste 30 Sudoeste 0 953.2 -0.6 53
2019-10-16 12:00:00 14.4 8 Sudeste 13 Este 0 953.6 0.3 56
2019-10-16 11:00:00 12.1 5 Norte 9 Norte 0 953.9 1.1 66
2019-10-16 10:00:00 9.6 4 Nordeste 8 Nordeste 0 953.8 1.4 76
2019-10-16 09:00:00 6 4 Norte 8 Nordeste 0 953.3 0.7 87
2019-10-16 08:00:00 6.8 3 Sudeste 11 Sudeste 0 952.8 0.2 84
2019-10-16 07:00:00 7.1 8 Sudeste 11 Sudeste 0 952.4 -0.5 84
2019-10-16 06:00:00 6.9 3 Sudeste 8 Este 0 952.6 -0.7 82
2019-10-16 05:00:00 7.3 0 Calma -- -- 0 952.6 -1 78
2019-10-16 04:00:00 9.1 5 Sudeste 11 Sudeste 0 952.9 -0.6 71
2019-10-16 03:00:00 9.8 8 Este 11 Este 0 953.3 -0.3 66
2019-10-16 02:00:00 11.1 6 Sur 9 Sur 0 953.6 -0.1 61
2019-10-16 01:00:00 11.6 7 Sudeste 11 Sur 0 953.5 0.2 58
2019-10-16 00:00:00 11.9 9 Sudeste 11 Sudeste 0 953.6 0.8 56
2019-10-15 23:00:00 12.8 5 Sudeste 18 Sudoeste 0 953.7 1.2 50
2019-10-15 22:00:00 14.2 13 Sudoeste 28 Sudoeste 0 953.3 1.2 45
2019-10-15 21:00:00 14.8 19 Sudoeste 30 Sudoeste 0 952.8 0.7 43
2019-10-15 20:00:00 15.3 15 Sudoeste 26 Oeste 0 952.5 0.4 41
2019-10-15 19:00:00 16.4 15 Sudoeste 39 Sudoeste 0 952.1 0 39
2019-10-15 18:00:00 17.4 19 Sudoeste 46 Sudoeste 0 952.1 -0.4 38
2019-10-15 17:00:00 17.4 19 Sudoeste 37 Sudoeste 0 952.1 -1.1 39
2019-10-15 16:00:00 17.3 22 Sur 48 Sudoeste 0 952.1 -1.7 40
2019-10-15 15:00:00 17.3 19 Sur 32 Sur 0 952.5 -1.4 42
2019-10-15 14:00:00 16 14 Sudeste 26 Sur 0 953.2 -0.5 46
2019-10-15 13:00:00 14.8 15 Sudeste 24 Sudeste 0 953.8 0.7 51
2019-10-15 12:00:00 14.2 5 Sur 26 Sudoeste 0 953.9 1.3 49
2019-10-15 11:00:00 12.5 10 Sudeste 18 Sudeste 0 953.7 1.8 56
2019-10-15 10:00:00 11.1 5 Sur 15 Sudoeste 0 953.1 1.2 61
2019-10-15 09:00:00 7.5 7 Sudeste 15 Sudoeste 0 952.6 1.2 71
2019-10-15 08:00:00 9.3 17 Oeste 28 Noroeste 0 951.9 0.5 65
2019-10-15 07:00:00 8.4 3 Nordeste 24 Oeste 0 951.9 0.5 67
2019-10-15 06:00:00 9.7 24 Oeste 32 Oeste 0 951.4 0.1 62
2019-10-15 05:00:00 9.7 5 Oeste 33 Oeste 0 951.4 0.6 61
2019-10-15 04:00:00 10.1 21 Oeste 35 Oeste 0 951.4 1.2 60
2019-10-15 03:00:00 10.5 28 Oeste 45 Oeste 0 951.3 1.2 59
2019-10-15 02:00:00 10.7 23 Oeste 33 Oeste 0 950.8 1.4 61
2019-10-15 01:00:00 10.8 20 Oeste 33 Oeste 0 950.2 1.3 68
2019-10-15 00:00:00 11.4 16 Oeste 26 Oeste 0 950.1 2 68
2019-10-14 23:00:00 11.4 12 Sudoeste 21 Sudoeste 0 949.4 1.5 81
2019-10-14 22:00:00 11.8 15 Oeste 35 Sudoeste 0 948.9 2.1 84
2019-10-14 21:00:00 11.9 22 Sudoeste 35 Sudoeste 0 948.1 3.2 84
2019-10-14 20:00:00 12.1 19 Sudoeste 46 Sudoeste 0.9 947.9 3 83
2019-10-14 19:00:00 12.8 33 Oeste 74 Sudoeste 0.7 946.8 2.3 80
2019-10-14 18:00:00 19 22 Sudoeste 52 Sudoeste 0 944.9 0 43
2019-10-14 17:00:00 20.3 26 Sudoeste 48 Sudoeste 0 944.9 -0.8 41
2019-10-14 16:00:00 20.7 29 Sudoeste 59 Oeste 0 944.5 -1.6 41
2019-10-14 15:00:00 20.4 32 Sudoeste 52 Sudoeste 0 944.9 -0.7 48
2019-10-14 14:00:00 19.3 30 Sudoeste 54 Sudoeste 0 945.7 0.4 58
2019-10-14 13:00:00 17.7 24 Sudoeste 55 Oeste 0 946.1 1 70
2019-10-14 12:00:00 19.2 31 Sudoeste 54 Sudoeste 0 945.6 1.3 57
2019-10-14 11:00:00 19.9 32 Sur 50 Sur 0 945.3 1.4 55
2019-10-14 10:00:00 19 26 Sur 52 Sudoeste 0 945.1 1.6 60
2019-10-14 09:00:00 17.6 19 Sur 35 Sur 0 944.3 0.7 64
2019-10-14 08:00:00 14.8 15 Sur 24 Sur 0 943.9 0.3 84
2019-10-14 07:00:00 13.7 0 Calma 9 Norte 0 943.5 -0.5 85
2019-10-14 06:00:00 14.5 8 Noroeste 15 Noroeste 0 943.6 -1.1 83
2019-10-14 05:00:00 14.3 7 Norte 13 Norte 0 943.6 -2 83
2019-10-14 04:00:00 14.5 8 Norte 17 Noroeste 0 944 -2.2 84
2019-10-14 03:00:00 14.7 5 Norte 13 Noroeste 0 944.7 -2.2 83
2019-10-14 02:00:00 15.4 8 Noroeste 13 Noroeste 0 945.6 -1.7 80
2019-10-14 01:00:00 15.3 5 Norte 9 Noroeste 0 946.2 -1.1 82
2019-10-14 00:00:00 15.8 3 Norte 9 Norte 0 946.9 -0.3 79
2019-10-13 23:00:00 16.7 5 Norte 8 Norte 0 947.3 0.2 76
2019-10-13 22:00:00 17.8 5 Norte 8 Norte 0 947.3 0.1 73
2019-10-13 21:00:00 18.7 4 Nordeste 5 Este 0 947.2 -0.1 67
2019-10-13 20:00:00 21.3 5 Sur 13 Sur 0 947.1 -0.6 57
2019-10-13 19:00:00 24.3 11 Sur 26 Sur 0 947.2 -0.9 48
2019-10-13 18:00:00 24.8 9 Sur 35 Sudoeste 0 947.3 -1.2 46
2019-10-13 17:00:00 24.2 12 Sudoeste 41 Sudoeste 0 947.7 -1.5 48
2019-10-13 16:00:00 23.6 12 Sur 32 Sur 0 948.1 -1.5 48
2019-10-13 15:00:00 22.8 16 Sur 28 Sudeste 0 948.5 -1.6 51
2019-10-13 14:00:00 22.2 15 Sur 30 Sur 0 949.2 -0.8 56
2019-10-13 13:00:00 21.1 15 Sur 33 Sudoeste 0 949.6 -0.1 64
2019-10-13 12:00:00 20.2 14 Sur 32 Sur 0 950.1 1.3 70
2019-10-13 11:00:00 18.7 8 Sur 11 Sur 0 950 1.9 78
2019-10-13 10:00:00 14.9 5 Norte 11 Norte 0 949.7 1.7 88
2019-10-13 09:00:00 12.7 8 Norte 11 Norte 0 948.8 1.1 94
2019-10-13 08:00:00 13 6 Noroeste 11 Norte 0 948.1 -0.1 92
2019-10-13 07:00:00 13.4 10 Norte 13 Noroeste 0 948 -0.6 92
2019-10-13 06:00:00 14 10 Noroeste 15 Norte 0 947.7 -1.3 92
2019-10-13 05:00:00 14.6 10 Norte 15 Norte 0 948.2 -1 88
2019-10-13 04:00:00 14.9 7 Norte 11 Norte 0 948.6 -0.9 87
2019-10-13 03:00:00 15.7 7 Noroeste 22 Noroeste 0 949 -0.3 85
2019-10-13 02:00:00 15.9 15 Noroeste 21 Noroeste 0.1 949.2 -0.5 86
2019-10-13 01:00:00 16.7 2 Norte 13 Sur 0 949.5 0.5 82
2019-10-13 00:00:00 17.5 10 Este 28 Sur 0.9 949.3 -1.2 76
2019-10-12 23:00:00 18.3 7 Nordeste 32 Sudeste 0 949.7 2.5 72
2019-10-12 22:00:00 18.4 15 Este 84 Sudoeste 3.2 949 1.6 69
2019-10-12 21:00:00 21.6 48 Sudoeste 65 Sudoeste 0.4 950.5 2.8 51
2019-10-12 20:00:00 23.7 8 Sudeste 22 Sur 0 947.2 -1 38
2019-10-12 19:00:00 26.6 14 Sur 30 Sudoeste 0 947.4 -1.1 33
2019-10-12 18:00:00 26.5 17 Sur 42 Sur 0 947.7 -1.4 35
2019-10-12 17:00:00 27.2 17 Sur 41 Sudoeste 0 948.2 -1.9 35
2019-10-12 16:00:00 26.7 13 Sur 33 Sur 0 948.5 -2.1 38
2019-10-12 15:00:00 25.9 8 Sur 24 Sur 0 949.1 -1.8 42
2019-10-12 14:00:00 25 10 Sudeste 22 Sur 0 950.1 -0.7 45
2019-10-12 13:00:00 24.4 8 Sur 17 Sur 0 950.6 -0.1 48
2019-10-12 12:00:00 22.6 4 Sudeste 17 Nordeste 0 950.9 0.4 55
2019-10-12 11:00:00 20.4 7 Este 18 Sur 0 950.8 0.7 64
2019-10-12 10:00:00 18.5 4 Noroeste 13 Noroeste 0 950.7 0.7 73
2019-10-12 09:00:00 15.9 4 Norte 11 Nordeste 0 950.5 0.8 81
2019-10-12 08:00:00 16.5 4 Nordeste 13 Sudeste 0 950.1 0.4 78
2019-10-12 07:00:00 17 4 Noroeste 9 Nordeste 0 950 0.2 75
2019-10-12 06:00:00 17.5 8 Nordeste 11 Nordeste 0 949.7 -0.7 71
2019-10-12 05:00:00 18.7 0 Calma 9 Sur 0 949.7 -0.6 65
2019-10-12 04:00:00 19.3 7 Este 11 Sudeste 0 949.8 -0.6 60
2019-10-12 03:00:00 20.5 7 Sudeste 9 Sudeste 0 950.4 0.2 53
2019-10-12 02:00:00 20.7 4 Sudeste 11 Sur 0 950.3 0 50
2019-10-12 01:00:00 21.5 8 Sudeste 11 Sudeste 0 950.4 0.3 49
2019-10-12 00:00:00 22.1 4 Este 11 Este 0 950.2 0.4 50
2019-10-11 23:00:00 22.4 6 Este 9 Este 0 950.3 0.6 54
2019-10-11 22:00:00 22.4 6 Este 13 Este 0 950.1 0.4 55
2019-10-11 21:00:00 23 7 Sudeste 9 Sudeste 0 949.8 -0.2 52
2019-10-11 20:00:00 24 3 Sur 5 Sur 0 949.7 -0.6 51
2019-10-11 19:00:00 26.5 4 Este 13 Oeste 0 949.7 -1.2 45
2019-10-11 18:00:00 27.6 8 Sudoeste 18 Sur 0 950 -1.9 43
2019-10-11 17:00:00 27.2 8 Sur 22 Sudeste 0 950.3 -2.7 45
2019-10-11 16:00:00 26.4 14 Sur 24 Sudoeste 0 950.9 -3 47
2019-10-11 15:00:00 25.5 9 Sudeste 24 Sudoeste 0 951.9 -2.5 50
2019-10-11 14:00:00 24.1 8 Sudeste 21 Sur 0 953 -1.6 54
2019-10-11 13:00:00 23.8 7 Sur 15 Sudeste 0 953.9 -0.5 55
2019-10-11 12:00:00 21.4 6 Norte 11 Norte 0 954.4 0.6 62
2019-10-11 11:00:00 18.2 6 Noroeste 11 Norte 0 954.6 1 69
2019-10-11 10:00:00 15.4 8 Noroeste 11 Noroeste 0 954.4 1.1 75
2019-10-11 09:00:00 13.1 7 Norte 9 Norte 0 953.8 0.7 84
2019-10-11 08:00:00 12.7 6 Norte 8 Norte 0 953.6 0.8 85
2019-10-11 07:00:00 13.2 5 Norte 8 Norte 0 953.3 0.4 83
2019-10-11 06:00:00 13.7 6 Norte 9 Norte 0 953.1 -0.1 81
2019-10-11 05:00:00 14.3 5 Norte 9 Norte 0 952.8 -0.2 78
2019-10-11 04:00:00 15 7 Norte 11 Norte 0 952.9 0 75
2019-10-11 03:00:00 15.8 9 Noroeste -- -- -- 953.2 0.4 72
2019-10-11 02:00:00 16 5 Norte 11 Norte 0 953 0.4 72
2019-10-11 01:00:00 16.7 7 Norte 8 Norte 0 952.9 1 69
2019-10-11 00:00:00 17.9 5 Norte 8 Norte 0 952.8 1.4 65
2019-10-10 23:00:00 19 6 Norte 11 Norte 0 952.6 1.4 62
2019-10-10 22:00:00 20.1 4 Nordeste 9 Noroeste 0 951.9 0.9 59
2019-10-10 21:00:00 21.9 7 Norte 13 Norte 0 951.4 0.4 54
2019-10-10 20:00:00 23.5 9 Norte 15 Norte 0 951.2 0.1 49
2019-10-10 19:00:00 26.6 8 Norte 15 Oeste 0 951 -0.6 41
2019-10-10 18:00:00 27.1 3 Este 11 Noroeste 0 951 -1.3 40
2019-10-10 17:00:00 27.1 5 Oeste 17 Oeste 0 951.1 -2.2 41
2019-10-10 16:00:00 26.5 5 Sur 15 Sudoeste 0 951.6 -2.3 44
2019-10-10 15:00:00 24.9 6 Este 17 Este 0 952.3 -2 48
2019-10-10 14:00:00 23.2 6 Norte 18 Norte 0 953.3 -1 52
2019-10-10 13:00:00 22.1 15 Norte 24 Norte 0 953.9 0 54
2019-10-10 12:00:00 19.6 13 Norte 18 Norte 0 954.3 0.9 53
2019-10-10 11:00:00 17.5 8 Norte 11 Norte 0 954.3 1.1 58
2019-10-10 10:00:00 15.4 3 Nordeste 8 Nordeste 0 953.9 1.2 62
2019-10-10 09:00:00 14.2 3 Nordeste 13 Norte 0 953.4 1 66
2019-10-10 08:00:00 13.2 11 Norte 13 Norte 0 953.2 1 69
2019-10-10 07:00:00 13.5 6 Norte 13 Norte 0 952.7 0.7 67
2019-10-10 06:00:00 14.1 7 Norte 13 Norte 0 952.4 0.1 64
2019-10-10 05:00:00 14.6 12 Norte 17 Norte 0 952.2 0.3 63
2019-10-10 04:00:00 15.3 9 Norte 18 Norte 0 952 0.3 61
2019-10-10 03:00:00 16 13 Norte -- -- -- 952.3 1.1 59
2019-10-10 02:00:00 16.9 16 Norte 22 Norte 0 951.9 1.1 57
2019-10-10 01:00:00 18.2 11 Norte 22 Norte 0 951.7 1.8 53
2019-10-10 00:00:00 19.7 15 Noroeste 32 Nordeste 0 951.2 2 47
2019-10-09 23:00:00 21.5 10 Nordeste 28 Nordeste 0 950.8 2.3 38
2019-10-09 22:00:00 22.1 6 Norte 22 Norte 0 949.9 1.8 41
2019-10-09 21:00:00 23 15 Norte 21 Norte 0 949.2 1 40
2019-10-09 20:00:00 25.7 6 Sudeste 13 Sudeste 0 948.5 0 39
2019-10-09 19:00:00 28.2 10 Sudeste 17 Sudeste 0 948.1 -0.9 33
2019-10-09 18:00:00 29 8 Sudeste 18 Sur 0 948.2 -1.1 32
2019-10-09 17:00:00 29.1 5 Norte 15 Sudoeste 0 948.5 -1.3 31
2019-10-09 16:00:00 29 5 Oeste 15 Sur 0 949 -1.5 32
2019-10-09 15:00:00 27.7 8 Sudoeste 17 Sudoeste 0 949.3 -1.6 35
2019-10-09 14:00:00 27.2 8 Sudeste 22 Este 0 949.8 -1.1 36
2019-10-09 13:00:00 25.4 4 Nordeste 11 Noroeste 0 950.5 0 40
2019-10-09 12:00:00 23.2 4 Norte 11 Nordeste 0 950.9 0.9 43
2019-10-09 11:00:00 20 4 Oeste 13 Sudeste 0 950.9 1.1 50
2019-10-09 10:00:00 16.5 4 Sur 9 Sur 0 950.5 1.1 62
2019-10-09 09:00:00 13.6 5 Noroeste 26 Norte 0 950 0.6 73
2019-10-09 08:00:00 12.4 7 Norte 11 Norte 0 949.8 0.5 75
2019-10-09 07:00:00 13 0 Calma 5 Nordeste 0 949.4 0.2 71
2019-10-09 06:00:00 14 4 Este 13 Norte 0 949.4 -0.2 68
2019-10-09 05:00:00 14.7 12 Norte 21 Norte 0 949.3 -0.5 65
2019-10-09 04:00:00 14.9 4 Norte 9 Norte 0 949.2 -0.6 65
2019-10-09 03:00:00 15.5 4 Norte -- -- 0 949.6 -0.3 63
2019-10-09 02:00:00 16.4 -- -- -- -- 0 949.8 0 59
2019-10-09 01:00:00 17.6 7 Norte 13 Norte 0 949.8 0.4 55
2019-10-09 00:00:00 18.6 9 Norte 13 Norte 0 949.9 0.5 51
2019-10-08 23:00:00 19.9 10 Norte 13 Norte 0 949.8 0.8 48
2019-10-08 22:00:00 21.9 2 Sudeste 8 Sudoeste 0 949.4 0.4 41
2019-10-08 21:00:00 23.5 3 Sudeste 9 Sur 0 949.4 0.2 36
2019-10-08 20:00:00 26.1 7 Sudeste 15 Sur 0 949 -0.7 32
2019-10-08 19:00:00 29.3 9 Sur 21 Sur 0 949 -1.3 27
2019-10-08 18:00:00 30 7 Sur 22 Sudoeste 0 949.2 -1.5 26
2019-10-08 17:00:00 29.6 13 Sudoeste 26 Sudoeste 0 949.7 -1.9 27
2019-10-08 16:00:00 29.2 12 Sudoeste 22 Sudoeste 0 950.3 -2.1 28
2019-10-08 15:00:00 28.1 10 Sur 18 Sur 0 950.7 -2.6 30
2019-10-08 14:00:00 26.7 8 Sur 22 Sudoeste 0 951.6 -1.7 33
2019-10-08 13:00:00 24.7 6 Sur 21 Sur 0 952.4 -0.8 37
2019-10-08 12:00:00 21.5 3 Norte 11 Nordeste 0 953.3 0.5 42
2019-10-08 11:00:00 18.5 3 Norte 8 Norte 0 953.3 0.8 50
2019-10-08 10:00:00 15.4 2 Norte -- -- 0 953.2 0.8 59
2019-10-08 09:00:00 11.9 4 Norte 8 Norte 0 952.8 0.9 74
2019-10-08 08:00:00 11.9 8 Norte 11 Norte 0 952.5 0.5 72
2019-10-08 07:00:00 12.4 5 Norte 5 Norte 0 952.4 0 68
2019-10-08 06:00:00 13.8 5 Norte 17 Noroeste 0 951.9 -0.5 62
2019-10-08 05:00:00 13.2 9 Norte 13 Norte 0 952 -0.3 66
2019-10-08 04:00:00 14.9 3 Nordeste 17 Norte 0 952.4 0.1 58
2019-10-08 03:00:00 15.8 14 Norte -- -- -- 952.4 -0.1 57
2019-10-08 02:00:00 17.6 4 Norte 9 Noroeste 0 952.3 0 50
2019-10-08 01:00:00 18 6 Nordeste 11 Nordeste 0 952.3 0.5 48
2019-10-08 00:00:00 18.8 4 Norte 9 Norte 0 952.5 1.2 45
2019-10-07 23:00:00 19.4 4 Norte 9 Norte 0 952.3 1.4 44
2019-10-07 22:00:00 21.1 2 Este 11 Norte 0 951.8 1.1 40
2019-10-07 21:00:00 22.6 9 Norte 13 Nordeste 0 951.3 0.7 42
2019-10-07 20:00:00 25.1 5 Sur 13 Sudoeste 0 950.9 -0.1 34
2019-10-07 19:00:00 29.3 4 Este 9 Norte 0 950.7 -0.6 28
2019-10-07 18:00:00 29 5 Nordeste 11 Nordeste 0 950.6 -1.2 28
2019-10-07 17:00:00 28.5 10 Noroeste 15 Oeste 0 951 -1.4 28
2019-10-07 16:00:00 28.1 6 Sudoeste 18 Sur 0 951.3 -1.3 29
2019-10-07 15:00:00 26.9 12 Sudeste 18 Sur 0 951.8 -1.2 31
2019-10-07 14:00:00 25.6 4 Sur 21 Oeste 0 952.4 -0.9 33
2019-10-07 13:00:00 23.3 6 Noroeste 11 Nordeste 0 952.6 -0.3 37
2019-10-07 12:00:00 21.7 5 Sur 18 Oeste 0 953 0.2 46
2019-10-07 11:00:00 19.7 3 Nordeste 13 Norte 0 953.3 0.8 51
2019-10-07 10:00:00 15.9 5 Norte 9 Norte 0 952.9 0.9 59
2019-10-07 09:00:00 12.4 3 Noroeste 8 Norte 0 952.8 0.7 71
2019-10-07 08:00:00 12.2 2 Norte 8 Oeste 0 952.5 0.9 69
2019-10-07 07:00:00 12.7 0 Calma 5 Sur 0 952 -0.1 67
2019-10-07 06:00:00 12.8 6 Norte 9 Nordeste 0 952.1 0.1 63
2019-10-07 05:00:00 12.4 3 Noroeste 9 Nordeste 0 951.6 -0.5 63
2019-10-07 04:00:00 13.6 6 Norte 9 Norte 0 952.1 -0.4 58
2019-10-07 03:00:00 14.8 0 Calma -- -- -- 952 -0.6 53
2019-10-07 02:00:00 15.9 3 Norte 8 Sudoeste 0 952.1 -0.4 48
2019-10-07 01:00:00 17.1 0 Calma 9 Sudoeste 0 952.5 1 45
2019-10-07 00:00:00 17.7 4 Este 8 Sur 0 952.6 1.5 42
2019-10-06 23:00:00 18.9 5 Nordeste 17 Noroeste 0 952.5 1.9 39
2019-10-06 22:00:00 21.2 14 Norte 21 Norte 0 951.5 1.3 34
2019-10-06 21:00:00 22.6 8 Norte 17 Noroeste 0 951.1 0.7 28
2019-10-06 20:00:00 24.5 5 Noroeste 11 Norte 0 950.6 -0.4 31
2019-10-06 19:00:00 27.7 8 Sudeste 15 Sudeste 0 950.2 -1.2 26
2019-10-06 18:00:00 28.2 5 Sudeste 13 Sudeste 0 950.4 -1.3 26
2019-10-06 17:00:00 28.5 6 Sudeste 17 Sudoeste 0 951 -1.4 25
2019-10-06 16:00:00 28 6 Sur 18 Sudoeste 0 951.4 -1.6 27
2019-10-06 15:00:00 27.1 5 Sur 21 Oeste 0 951.7 -1.4 30
2019-10-06 14:00:00 25.8 5 Sur 11 Sur 0 952.4 -0.8 33
2019-10-06 13:00:00 23.9 4 Noroeste 21 Sudoeste 0 953 0.1 38
2019-10-06 12:00:00 21.7 4 Sudoeste 9 Sudoeste 0 953.1 0.9 44
2019-10-06 11:00:00 17.7 5 Oeste 11 Oeste 0 953.2 1.6 54
2019-10-06 10:00:00 14.3 4 Nordeste 9 Norte 0 952.9 1.6 66
2019-10-06 09:00:00 10.5 9 Norte 13 Norte 0 952.2 1.3 78
2019-10-06 08:00:00 10.2 6 Norte 9 Norte 0 951.6 0.7 78
2019-10-06 07:00:00 10.8 6 Norte 9 Norte 0 951.3 0.5 77
2019-10-06 06:00:00 11.1 0 Calma 9 Norte 0 950.9 -0.1 76
2019-10-06 05:00:00 12 6 Norte 11 Norte 0 950.9 0.1 73
2019-10-06 04:00:00 14 3 Sur 9 Sudeste 0 950.8 0.2 65
2019-10-06 03:00:00 13.8 0 Calma -- -- -- 951 0.7 67
2019-10-06 02:00:00 15 6 Norte 9 Norte 0 950.8 0.9 64
2019-10-06 01:00:00 16 2 Oeste 11 Norte 0 950.6 0.9 61
2019-10-06 00:00:00 17.6 9 Noroeste 17 Norte 0 950.3 1.1 56
2019-10-05 23:00:00 19.8 8 Sudeste 11 Sudeste 0 949.9 1.1 48
2019-10-05 22:00:00 19.6 0 Calma 9 Sudoeste 0 949.7 1.4 47
2019-10-05 21:00:00 22.2 5 Sur 11 Sudeste 0 949.2 1 40
2019-10-05 20:00:00 24.8 7 Sudeste 18 Sur 0 948.8 0.5 36
2019-10-05 19:00:00 27.3 9 Sur 21 Sur 0 948.3 -0.4 30
2019-10-05 18:00:00 27.9 10 Sur 21 Sudoeste 0 948.2 -1 30
2019-10-05 17:00:00 27.9 8 Sudoeste 32 Sudoeste 0 948.3 -1.5 30
2019-10-05 16:00:00 27.4 8 Oeste 22 Oeste 0 948.7 -1.5 32
2019-10-05 15:00:00 26.5 4 Sur 17 Sudoeste 0 949.2 -1.1 35
2019-10-05 14:00:00 25.6 5 Sur 22 Sudoeste 0 949.8 -0.9 38
2019-10-05 13:00:00 24.1 6 Sur 13 Sur 0 950.2 -0.2 43
2019-10-05 12:00:00 21.5 4 Norte 8 Norte 0 950.3 0.2 50
2019-10-05 11:00:00 18.6 3 Norte 11 Norte 0 950.7 1.3 59
2019-10-05 10:00:00 14.1 8 Norte 11 Norte 0 950.4 1.1 71
2019-10-05 09:00:00 10.7 5 Norte 9 Norte 0 950.1 0.8 81
2019-10-05 08:00:00 10.7 8 Norte 13 Norte 0 949.4 0.1 79
2019-10-05 07:00:00 11.3 7 Norte 9 Norte 0 949.3 0.2 75
2019-10-05 06:00:00 11.7 7 Norte 11 Norte 0 949.3 0.1 73
2019-10-05 05:00:00 12.2 3 Norte 5 Nordeste 0 949.3 0.3 68
2019-10-05 04:00:00 13.7 2 Sudeste 9 Sudeste 0 949.1 -0.1 58
2019-10-05 03:00:00 14.4 6 Sudeste -- -- -- 949.2 0.1 56
2019-10-05 02:00:00 14.7 0 Calma 11 Nordeste 0 949 0.3 59
2019-10-05 01:00:00 16.1 7 Nordeste 15 Noroeste 0 949.2 0.6 52
2019-10-05 00:00:00 17.4 9 Norte 13 Norte 0 949.1 0.9 45
2019-10-04 23:00:00 19.9 6 Sudeste 13 Sur 0 948.7 0.6 37
2019-10-04 22:00:00 19.6 6 Sudeste 15 Oeste 0 948.6 0.8 37
2019-10-04 21:00:00 23.1 9 Sur 22 Sudoeste 0 948.2 0.3 30
2019-10-04 20:00:00 25.7 8 Sudoeste 28 Sudoeste 0 948.1 -0.4 26
2019-10-04 19:00:00 28 11 Sudoeste 35 Sudoeste 0 947.8 -1.3 24
2019-10-04 18:00:00 28.5 10 Sur 33 Sur 0 947.9 -1.8 24
2019-10-04 17:00:00 27.1 10 Sur 32 Sudoeste 0 948.5 -2 26
2019-10-04 16:00:00 26.8 14 Sudoeste 37 Sudoeste 0 949.1 -2.1 26
2019-10-04 15:00:00 26.6 12 Sudoeste 33 Sudoeste 0 949.7 -2.3 27
2019-10-04 14:00:00 25.1 10 Sur 18 Sudoeste 0 950.5 -1.6 30
2019-10-04 13:00:00 22.6 5 Sudoeste 15 Oeste 0 951.2 -0.9 35
2019-10-04 12:00:00 20.1 4 Sur 9 Nordeste 0 952 0 40
2019-10-04 11:00:00 16.9 5 Norte 11 Sudoeste 0 952.1 0.6 48
2019-10-04 10:00:00 14.2 0 Calma 8 Noroeste 0 952.1 0.6 57
2019-10-04 09:00:00 9 3 Norte 13 Norte 0 952 0.5 78
2019-10-04 08:00:00 9.4 6 Norte 9 Noroeste 0 951.5 -0.1 73
2019-10-04 07:00:00 9.9 5 Norte 9 Noroeste 0 951.5 0.1 72
2019-10-04 06:00:00 10 9 Nordeste 11 Norte 0 951.5 0.1 73
2019-10-04 05:00:00 11.1 2 Norte 9 Noroeste 0 951.6 0.1 67
2019-10-04 04:00:00 11.6 4 Norte 9 Norte 0 951.4 -0.1 66
2019-10-04 03:00:00 12.6 4 Nordeste 9 Nordeste 0 951.4 -0.1 62
2019-10-04 02:00:00 13.4 0 Calma -- -- 0 951.5 0.2 58
2019-10-04 01:00:00 14.3 6 Nordeste 11 Nordeste 0 951.5 0.7 57
2019-10-04 00:00:00 15.6 5 Norte 13 Norte 0 951.5 0.9 51
2019-10-03 23:00:00 16.9 5 Norte 11 Norte 0 951.3 1 47
2019-10-03 22:00:00 18.7 6 Este 9 Este 0 950.8 0.8 38
2019-10-03 21:00:00 20 6 Este 9 Este 0 950.6 0.4 36
2019-10-03 20:00:00 22.6 5 Sudeste 11 Sudeste 0 950.3 0 32
2019-10-03 19:00:00 25.4 10 Sudeste 15 Sudeste 0 950 -0.9 28
2019-10-03 18:00:00 25.2 9 Sudeste 17 Sudeste 0 950.2 -1 28
2019-10-03 17:00:00 25.8 6 Sudeste 18 Sur 0 950.3 -1.6 26
2019-10-03 16:00:00 24.7 5 Sudeste 17 Sudeste 0 950.9 -1.7 27
2019-10-03 15:00:00 23.6 5 Sur 13 Oeste 0 951.2 -1.8 32
2019-10-03 14:00:00 22.1 6 Sur 15 Oeste 0 951.9 -1.4 36
2019-10-03 13:00:00 20.1 4 Sudoeste 17 Sudoeste 0 952.6 -0.6 43
2019-10-03 12:00:00 18.1 6 Sur 11 Sudoeste 0 953 0.2 50
2019-10-03 11:00:00 15.5 4 Este 8 Sudeste 0 953.3 1 58
2019-10-03 10:00:00 12.2 5 Norte 9 Norte 0 953.2 1.2 68
2019-10-03 09:00:00 9.1 -- -- -- -- 0 952.8 0.8 81
2019-10-03 08:00:00 9.1 7 Norte 9 Norte 0 952.3 0.6 78
2019-10-03 07:00:00 10.1 5 Noroeste 9 Norte 0 952 0 72
2019-10-03 06:00:00 10.6 6 Norte -- -- 0 952 -0.3 71
2019-10-03 05:00:00 11.6 4 Norte 9 Nordeste 0 951.7 -0.4 68
2019-10-03 04:00:00 12.9 4 Norte 8 Norte 0 952 -0.5 62
2019-10-03 03:00:00 13.1 4 Nordeste 8 Norte 0 952.3 -0.3 60
2019-10-03 02:00:00 13.7 4 Noroeste 11 Este 0 952.1 -0.2 57
2019-10-03 01:00:00 14.2 5 Norte 9 Este 0 952.5 0.7 55
2019-10-03 00:00:00 15.7 7 Nordeste 11 Nordeste 0 952.6 1.2 50
2019-10-02 23:00:00 17.6 5 Este 18 Norte 0 952.3 1.2 44
2019-10-02 22:00:00 18.6 11 Norte 21 Norte 0 951.8 1.2 41
2019-10-02 21:00:00 19 13 Norte 18 Norte 0 951.4 1.1 41
2019-10-02 20:00:00 20.9 14 Norte 18 Norte 0 951.1 0.7 37
2019-10-02 19:00:00 23.4 11 Norte 21 Norte 0 950.6 0 30
2019-10-02 18:00:00 23.9 11 Noroeste 22 Norte 0 950.3 -0.3 29
2019-10-02 17:00:00 23.9 16 Norte 26 Norte 0 950.4 -1 27
2019-10-02 16:00:00 23.5 16 Norte 33 Norte 0 950.6 -0.9 28
2019-10-02 15:00:00 23.1 15 Norte 33 Oeste 0 950.6 -1.2 28
2019-10-02 14:00:00 21.4 10 Norte 24 Norte 0 951.4 -0.3 34
2019-10-02 13:00:00 20.9 12 Norte 26 Norte 0 951.5 0.8 37
2019-10-02 12:00:00 19.6 13 Norte 24 Norte 0 951.8 1.4 42
2019-10-02 11:00:00 18.2 6 Norte 13 Nordeste 0 951.7 1.9 50
2019-10-02 10:00:00 16.5 2 Sudeste 8 Nordeste 0 950.7 1.7 60
2019-10-02 09:00:00 12 6 Este 8 Este 0 950.4 1.8 77
2019-10-02 08:00:00 11.9 5 Este 13 Noroeste 0 949.8 1.4 73
2019-10-02 07:00:00 13.5 9 Oeste 21 Noroeste 0 949 0.6 67
2019-10-02 06:00:00 15.6 10 Norte 33 Oeste 0 948.6 -0.2 60
2019-10-02 05:00:00 16.5 21 Oeste 37 Oeste 0 948.4 -0.5 59
2019-10-02 04:00:00 17.3 25 Oeste 33 Oeste 0 948.4 -0.4 57
2019-10-02 03:00:00 17.5 13 Oeste 21 Oeste 0 948.8 -0.2 54
2019-10-02 02:00:00 17.9 9 Norte 17 Oeste 0 948.9 0.4 50
2019-10-02 01:00:00 17.8 9 Norte 15 Oeste 0 948.8 0.9 51
2019-10-02 00:00:00 17.8 10 Noroeste 15 Noroeste 0 949 1.6 52
2019-10-01 23:00:00 18.6 8 Noroeste 18 Noroeste 0 948.5 1.3 50
2019-10-01 22:00:00 20.6 10 Noroeste 30 Oeste 0 947.9 1.3 44
2019-10-01 21:00:00 22.1 18 Oeste 35 Oeste 0 947.4 1.2 40
2019-10-01 20:00:00 23.1 24 Oeste 41 Oeste 0 947.2 1.1 40
2019-10-01 19:00:00 25.1 25 Oeste 39 Noroeste 0 946.6 0.4 38
2019-10-01 18:00:00 26.2 30 Oeste 45 Oeste 0 946.2 -0.2 35
2019-10-01 17:00:00 27.2 31 Oeste 50 Oeste 0 946.1 -0.8 29
2019-10-01 16:00:00 27.6 26 Oeste 39 Oeste 0 946.2 -1.4 25
2019-10-01 15:00:00 27.2 19 Oeste 33 Oeste 0 946.4 -1.6 30
2019-10-01 14:00:00 26.5 10 Oeste 21 Oeste 0 946.9 -1.3 31
2019-10-01 13:00:00 24.2 4 Este 13 Sudoeste 0 947.6 -0.2 34
2019-10-01 12:00:00 21.6 6 Sur 11 Sudoeste 0 948 0.5 37
2019-10-01 11:00:00 18.8 5 Sur 13 Sudoeste 0 948.2 0.8 43
2019-10-01 10:00:00 15 4 Nordeste 13 Sur 0 947.8 0.9 56
2019-10-01 09:00:00 11 5 Norte 11 Norte 0 947.5 0.5 70
2019-10-01 08:00:00 10.2 7 Norte 9 Norte 0 947.4 0.2 69
2019-10-01 07:00:00 10.8 7 Norte 9 Norte 0 946.9 -0.8 67
2019-10-01 06:00:00 11.8 5 Noroeste 9 Norte 0 947 -1.2 61
2019-10-01 05:00:00 12.3 5 Norte 9 Norte 0 947.2 -0.9 59
2019-10-01 04:00:00 12.9 7 Norte 9 Norte 0 947.7 -0.6 58
2019-10-01 03:00:00 13.8 7 Norte 9 Norte 0 948.2 -0.1 54
2019-10-01 02:00:00 15.2 7 Norte 11 Norte 0 948.1 -0.1 49
2019-10-01 01:00:00 16.2 6 Norte 11 Norte 0 948.3 0.2 48
2019-10-01 00:00:00 18.3 6 Este 9 Sudeste 0 948.3 0.5 42
2019-09-30 23:00:00 19.6 6 Sudeste 17 Sudoeste 0 948.2 0.4 35
2019-09-30 22:00:00 23.3 6 Sudoeste 18 Sudoeste 0 948.1 0.2 27
2019-09-30 21:00:00 24.6 6 Sur 18 Sudoeste 0 947.8 -0.2 25
2019-09-30 20:00:00 27.6 11 Sur 24 Sudoeste 0 947.8 -0.8 20
2019-09-30 19:00:00 29.6 15 Sudoeste 32 Oeste 0 947.9 -1.3 18
2019-09-30 18:00:00 30.1 17 Sudoeste 28 Sur 0 948 -1.9 16
2019-09-30 17:00:00 29.9 13 Sudoeste 35 Sudoeste 0 948.6 -2.2 18
2019-09-30 16:00:00 29.6 14 Sur 24 Sudoeste 0 949.2 -2.2 20
2019-09-30 15:00:00 28.8 13 Sur 26 Sur 0 949.9 -2 23
2019-09-30 14:00:00 27.1 4 Sur 13 Sur 0 950.8 -1.1 26
2019-09-30 13:00:00 24.9 7 Sur 15 Sudoeste 0 951.4 -0.4 32
2019-09-30 12:00:00 22.1 5 Sur 11 Norte 0 951.9 0.3 38
2019-09-30 11:00:00 18.9 3 Nordeste 9 Norte 0 951.9 0.5 44
2019-09-30 10:00:00 15.1 4 Noroeste 9 Nordeste 0 951.8 0.7 59
2019-09-30 09:00:00 10.9 5 Norte 11 Norte 0 951.6 0.7 75
2019-09-30 08:00:00 10.3 4 Norte 8 Norte 0 951.4 0.5 75
2019-09-30 07:00:00 11 8 Noroeste 11 Noroeste 0 951.1 -0.1 70
2019-09-30 06:00:00 12 5 Norte 8 Norte 0 950.9 -0.4 66
2019-09-30 05:00:00 12.5 8 Norte 9 Norte 0 950.9 -0.3 66
2019-09-30 04:00:00 13.5 2 Oeste 9 Sudeste 0 951.2 0 63
2019-09-30 03:00:00 14.4 6 Sur 8 Sur 0 951.3 0.2 55
2019-09-30 02:00:00 15.3 0 Calma 8 Norte 0 951.2 0.4 54
2019-09-30 01:00:00 16.6 6 Norte 11 Noroeste 0 951.2 0.6 51
2019-09-30 00:00:00 18.2 6 Noroeste 11 Norte 0 951.1 1.2 44
2019-09-29 23:00:00 18.9 0 Calma 11 Nordeste 0 950.8 1.2 38
2019-09-29 22:00:00 21.4 5 Sudeste 18 Sur 0 950.6 1.1 30
2019-09-29 21:00:00 24.6 8 Sur 15 Sudoeste 0 949.9 0.1 26
2019-09-29 20:00:00 27.6 11 Sur 22 Sur 0 949.6 -0.3 22
2019-09-29 19:00:00 29.6 12 Sur 22 Sur 0 949.5 -0.9 19
2019-09-29 18:00:00 30.3 12 Sur 26 Sudoeste 0 949.8 -1.4 18
2019-09-29 17:00:00 30.4 12 Sudoeste 30 Sudoeste 0 949.9 -2.1 19
2019-09-29 16:00:00 30 15 Sudoeste 32 Sudoeste 0 950.4 -1.9 22
2019-09-29 15:00:00 28.8 12 Sudoeste 32 Oeste 0 951.2 -1.7 28
2019-09-29 14:00:00 26.8 10 Sur 18 Sur 0 952 -0.8 35
2019-09-29 13:00:00 23.9 4 Noroeste 11 Sudoeste 0 952.3 -0.2 43
2019-09-29 12:00:00 21.2 4 Sudoeste 13 Oeste 0 952.9 0.6 49
2019-09-29 11:00:00 18.3 2 Norte 15 Sudoeste 0 952.8 0.9 50
2019-09-29 10:00:00 14.2 7 Norte 18 Norte 0 952.5 0.6 60
2019-09-29 09:00:00 10.8 12 Norte 18 Norte 0 952.3 0.6 75
2019-09-29 08:00:00 9.8 0 Calma 11 Norte 0 951.9 0.2 76
2019-09-29 07:00:00 10.5 6 Norte 11 Norte 0 951.9 0 73
2019-09-29 06:00:00 10.9 6 Norte 9 Norte 0 951.7 -0.3 72
2019-09-29 05:00:00 11.9 6 Norte 8 Norte 0 951.7 -0.3 69
2019-09-29 04:00:00 12.3 6 Norte 9 Norte 0 951.9 -0.2 66
2019-09-29 03:00:00 13.6 6 Norte 9 Norte 0 952 0 59
2019-09-29 02:00:00 14.3 7 Norte 9 Norte 0 952 0.3 57
2019-09-29 01:00:00 15.4 6 Norte 11 Norte 0 952.1 0.6 52
2019-09-29 00:00:00 16.6 6 Norte 9 Norte 0 952 0.8 47
2019-09-28 23:00:00 18.3 4 Norte -- -- 0 951.7 0.6 40
2019-09-28 22:00:00 20.5 -- -- -- -- 0 951.5 0.3 31
2019-09-28 21:00:00 22.8 4 Sudeste -- -- 0 951.2 -0.1 27
2019-09-28 20:00:00 25.7 6 Sur 15 Sur 0 951.1 -0.4 22
2019-09-28 19:00:00 28.3 10 Sur 18 Sur 0 951.2 -0.8 18
2019-09-28 18:00:00 28.9 12 Sur 18 Sur 0 951.3 -1.1 18
2019-09-28 17:00:00 28.8 14 Sur 28 Sudoeste 0 951.5 -1.9 20
2019-09-28 16:00:00 28.4 13 Sur 21 Sur 0 952 -1.9 22
2019-09-28 15:00:00 27.6 9 Sur 21 Sur 0 952.4 -2 27
2019-09-28 14:00:00 26.1 5 Sudoeste 13 Sur 0 953.4 -1 31
2019-09-28 13:00:00 23.8 5 Sudoeste 15 Sudoeste 0 953.9 0 39
2019-09-28 12:00:00 21.5 4 Norte 8 Nordeste 0 954.4 0.8 46
2019-09-28 11:00:00 18.2 4 Norte 11 Norte 0 954.4 1.3 54
2019-09-28 10:00:00 15.1 8 Norte 13 Norte 0 953.9 0.9 64
2019-09-28 09:00:00 10.9 4 Norte -- -- 0 953.6 0.9 81
2019-09-28 08:00:00 10.3 5 Norte 9 Norte 0 953.1 0.3 76
2019-09-28 07:00:00 11.5 6 Norte 15 Norte 0 953 0.1 70
2019-09-28 06:00:00 11.3 5 Norte 11 Norte 0 952.7 -0.3 67
2019-09-28 05:00:00 12.4 6 Norte 15 Norte 0 952.8 0.1 63
2019-09-28 04:00:00 13 5 Noroeste 9 Nordeste 0 952.9 0.4 62
2019-09-28 03:00:00 13.9 7 Norte 9 Norte 0 953 0.6 61
2019-09-28 02:00:00 15.3 3 Este 13 Noroeste 0 952.7 0.6 51
2019-09-28 01:00:00 17.4 6 Noroeste 11 Norte 0 952.5 0.9 43
2019-09-28 00:00:00 17.8 0 Calma 9 Nordeste 0 952.4 1.7 41
2019-09-27 23:00:00 19.9 3 Sudeste 15 Norte 0 952.1 1.7 37
2019-09-27 22:00:00 21.6 11 Noroeste 15 Norte 0 951.6 1.4 34
2019-09-27 21:00:00 24.9 11 Oeste 32 Sudoeste 0 950.7 0.6 27
2019-09-27 20:00:00 27 12 Sur 24 Sur 0 950.4 0.2 25
2019-09-27 19:00:00 28.8 13 Sur 37 Sur 0 950.2 -0.5 23
2019-09-27 18:00:00 29.1 14 Sur 37 Sudoeste 0 950.1 -1.3 23
2019-09-27 17:00:00 29.1 10 Sur 32 Oeste 0 950.2 -2 24
2019-09-27 16:00:00 28.7 14 Sur 28 Sudoeste 0 950.7 -1.8 27
2019-09-27 15:00:00 27.8 9 Sudoeste 28 Sudoeste 0 951.4 -1.5 31
2019-09-27 14:00:00 26.4 4 Sudoeste 13 Oeste 0 952.2 -1 36
2019-09-27 13:00:00 24 5 Sur 13 Sur 0 952.5 -0.2 42
2019-09-27 12:00:00 22 5 Sur 13 Sudoeste 0 952.9 0.7 50
2019-09-27 11:00:00 19 4 Oeste 11 Sudoeste 0 953.2 0.9 57
2019-09-27 10:00:00 15.8 8 Norte 13 Norte 0 952.7 0.7 69
2019-09-27 09:00:00 12.8 2 Sudeste 5 Sudeste 0 952.2 0.3 83
2019-09-27 08:00:00 12.5 2 Norte -- -- 0 952.3 0.6 83
2019-09-27 07:00:00 13.2 3 Norte 8 Noroeste 0 952 0.3 81
2019-09-27 06:00:00 13.7 6 Norte 11 Norte 0 951.9 -0.1 80
2019-09-27 05:00:00 14.3 5 Norte 8 Norte 0 951.7 -0.3 77
2019-09-27 04:00:00 15.2 5 Norte 9 Noroeste 0 951.7 -0.4 73
2019-09-27 03:00:00 15.8 7 Norte -- -- 0 952 -0.2 72
2019-09-27 02:00:00 16.6 4 Norte 11 Noroeste 0 952 0.1 68
2019-09-27 01:00:00 17.8 6 Norte 9 Norte 0 952.1 0.4 62
2019-09-27 00:00:00 19.7 6 Norte 8 Norte 0 952.2 1.1 53
2019-09-26 23:00:00 20.3 3 Sudeste 8 Sudeste 0 951.9 1.1 49
2019-09-26 22:00:00 21.4 3 Sur 11 Sur 0 951.7 1.1 42
2019-09-26 21:00:00 23.4 8 Sudeste 17 Sudoeste 0 951.1 0.4 38
2019-09-26 20:00:00 25.6 11 Sur 22 Sur 0 950.8 -0.3 34
2019-09-26 19:00:00 27.1 13 Sur 21 Sur 0 950.6 -0.9 32
2019-09-26 18:00:00 27.8 12 Sur 21 Sur 0 950.7 -1.2 32
2019-09-26 17:00:00 27.6 11 Sudoeste 24 Oeste 0 951.1 -1.3 31
2019-09-26 16:00:00 26.9 13 Sudoeste 32 Sudoeste 0 951.5 -1.5 34
2019-09-26 15:00:00 26.1 12 Sur 24 Sur 0 951.9 -1.8 36
2019-09-26 14:00:00 25 9 Sur 26 Sur 0 952.4 -1.3 38
2019-09-26 13:00:00 23.1 5 Sur 17 Sudoeste 0 953 -0.3 42
2019-09-26 12:00:00 20.9 6 Sur 13 Sur 0 953.7 0.9 52
2019-09-26 11:00:00 18.4 5 Noroeste 11 Norte 0 953.7 1.2 59
2019-09-26 10:00:00 15.6 8 Norte 15 Norte 0 953.3 1.4 67
2019-09-26 09:00:00 12.8 9 Norte 11 Norte 0 952.8 1 80
2019-09-26 08:00:00 12 5 Norte 8 Norte 0 952.5 0.8 81
2019-09-26 07:00:00 12.8 6 Norte 11 Norte 0 951.9 0.2 78
2019-09-26 06:00:00 13.5 9 Noroeste 11 Noroeste 0 951.8 0.1 75
2019-09-26 05:00:00 14.1 8 Norte 17 Norte 0 951.7 0 72
2019-09-26 04:00:00 14.9 10 Norte 17 Norte 0 951.7 0.1 70
2019-09-26 03:00:00 15.3 5 Norte 9 Norte 0 951.7 0.2 67
2019-09-26 02:00:00 16.5 8 Norte 13 Norte 0 951.7 0.6 61
2019-09-26 01:00:00 16.6 3 Noroeste 9 Noroeste 0 951.6 0.7 61
2019-09-26 00:00:00 17.4 4 Noroeste 9 Norte 0 951.5 1.1 59
2019-09-25 23:00:00 18.5 4 Noroeste 11 Norte 0 951.1 1.3 52
2019-09-25 22:00:00 20 8 Norte 15 Sudoeste 0 950.9 1.2 48
2019-09-25 21:00:00 21.3 6 Sudeste 13 Sudeste 0 950.4 0.8 43
2019-09-25 20:00:00 22.9 10 Sudeste 15 Este 0 949.8 0 39
2019-09-25 19:00:00 24.6 8 Sudeste 21 Sudoeste 0 949.7 -0.7 36
2019-09-25 18:00:00 25.2 4 Oeste 18 Sur 0 949.6 -1.2 34
2019-09-25 17:00:00 24.9 7 Sudoeste 15 Norte 0 949.8 -1.6 35
2019-09-25 16:00:00 24.4 5 Oeste 17 Noroeste 0 950.4 -1.4 36
2019-09-25 15:00:00 23 12 Oeste 21 Oeste 0 950.8 -1.1 40
2019-09-25 14:00:00 22.3 7 Nordeste 17 Norte 0 951.4 -0.4 40
2019-09-25 13:00:00 21.8 6 Norte 15 Norte 0 951.8 0.4 41
2019-09-25 12:00:00 21 8 Este 22 Nordeste 0 951.9 1.1 44
2019-09-25 11:00:00 19.5 12 Nordeste 22 Nordeste 0 951.8 1.8 48
2019-09-25 10:00:00 17.6 8 Nordeste 15 Nordeste 0 951.4 1.5 57
2019-09-25 09:00:00 14.6 7 Nordeste 11 Nordeste 0 950.8 1.1 70
2019-09-25 08:00:00 14 6 Este 13 Nordeste 0 950 0.2 73
2019-09-25 07:00:00 15.1 2 Oeste 15 Oeste 0 949.9 0 63
2019-09-25 06:00:00 16.2 10 Sudoeste 13 Sudoeste 0 949.7 -0.3 64
2019-09-25 05:00:00 17.2 3 Este 18 Oeste 0 949.8 -0.3 64
2019-09-25 04:00:00 18.2 13 Oeste 21 Oeste 0 949.9 -0.5 61
2019-09-25 03:00:00 18.9 13 Oeste 22 Oeste 0 950 -0.1 59
2019-09-25 02:00:00 19.7 16 Oeste 26 Oeste 0 950.1 0 57
2019-09-25 01:00:00 20.8 19 Oeste 32 Oeste 0 950.4 0.5 57
2019-09-25 00:00:00 21.3 15 Oeste 22 Oeste 0 950.1 0.7 60
2019-09-24 23:00:00 22.3 13 Oeste 26 Oeste 0 950.1 1 60
2019-09-24 22:00:00 22.9 15 Oeste 35 Oeste 0 949.9 1.2 58
2019-09-24 21:00:00 24.2 18 Oeste 37 Sudoeste 0 949.4 0.4 54
2019-09-24 20:00:00 25.5 23 Sudoeste 42 Sudoeste 0 949.1 -0.4 48
2019-09-24 19:00:00 26.6 22 Sudoeste 39 Sudoeste 0 948.7 -1.3 40
2019-09-24 18:00:00 27.4 16 Sudoeste 42 Sudoeste 0 949 -1.8 35
2019-09-24 17:00:00 27.3 17 Sur 54 Sudoeste 0 949.5 -2.2 33
2019-09-24 16:00:00 26.9 18 Sur 35 Sudoeste 0 950 -2.4 36
2019-09-24 15:00:00 26 17 Sur 41 Sudoeste 0 950.8 -2.1 38
2019-09-24 14:00:00 24.8 15 Sur 28 Sur 0 951.7 -1.5 41
2019-09-24 13:00:00 22.5 13 Sudoeste 42 Sudoeste 0 952.4 -0.3 46
2019-09-24 12:00:00 20.7 12 Sur 33 Sudoeste 0 952.9 0.3 51
2019-09-24 11:00:00 16.9 3 Norte 8 Norte 0 953.2 1 70
2019-09-24 10:00:00 14.1 5 Norte 11 Norte 0 952.7 0.4 81
2019-09-24 09:00:00 11.3 8 Norte 9 Norte 0 952.6 0.6 94
2019-09-24 08:00:00 10.8 2 Norte 11 Norte 0 952.2 0 91
2019-09-24 07:00:00 11.4 7 Norte -- -- 0 952.3 -0.2 91
2019-09-24 06:00:00 12.1 5 Noroeste 8 Noroeste 0 952 -0.8 89
2019-09-24 05:00:00 12.4 6 Norte 8 Norte 0 952.2 -0.8 88
2019-09-24 04:00:00 13 5 Nordeste 8 Norte 0 952.5 -0.6 85
2019-09-24 03:00:00 13.6 5 Norte 8 Norte 0 952.8 -0.4 83
2019-09-24 02:00:00 14.6 4 Norte 8 Norte 0 953 -0.4 80
2019-09-24 01:00:00 15.8 4 Nordeste 8 Sur 0 953.1 -0.2 69
2019-09-24 00:00:00 16.9 5 Sudeste 8 Sudeste 0 953.2 0.1 65
2019-09-23 23:00:00 17.7 5 Sudeste 11 Sur 0 953.4 1 59
2019-09-23 22:00:00 19.2 5 Sudeste 11 Sur 0 953.3 1 52
2019-09-23 21:00:00 20.3 6 Sudeste 18 Sur 0 953.1 0.8 48
2019-09-23 20:00:00 22.6 11 Sur 32 Sudoeste 0 952.4 -0.1 40
2019-09-23 19:00:00 23.6 11 Sudoeste 37 Sudoeste 0 952.3 -0.3 39
2019-09-23 18:00:00 24 12 Sur 35 Sur 0 952.3 -0.8 38
2019-09-23 17:00:00 23.4 14 Sur 32 Sudoeste 0 952.5 -1 40
2019-09-23 16:00:00 23.3 12 Sur 32 Sur 0 952.6 -1.3 44
2019-09-23 15:00:00 22.3 14 Sur 30 Sudoeste 0 953.1 -1 48
2019-09-23 14:00:00 21.7 13 Sudoeste 24 Sudoeste 0 953.5 -1.1 49
2019-09-23 13:00:00 20.3 4 Sudeste 11 Sur 0 953.9 0.2 53
2019-09-23 12:00:00 18.3 3 Sur 15 Sudeste 0 954.1 0.4 62
2019-09-23 11:00:00 15.9 2 Noroeste 9 Norte 0 954.6 1.4 69
2019-09-23 10:00:00 14.5 4 Este 9 Nordeste 0 953.7 1.1 74
2019-09-23 09:00:00 11.1 7 Norte 9 Norte 0 953.7 1.3 90
2019-09-23 08:00:00 10.1 5 Norte 8 Norte 0 953.2 1.5 90
2019-09-23 07:00:00 10.8 4 Norte 9 Norte 0 952.6 1 89
2019-09-23 06:00:00 11.2 7 Norte 9 Norte 0 952.4 0.9 89
2019-09-23 05:00:00 11.7 3 Norte 9 Norte 0 951.7 0.3 86
2019-09-23 04:00:00 11.9 5 Norte -- -- 0 951.6 0.4 86
2019-09-23 03:00:00 13.1 5 Nordeste 8 Este 0 951.5 0.6 77
2019-09-23 02:00:00 13.8 3 Norte -- -- 0 951.4 0.6 71
2019-09-23 01:00:00 14.4 4 Norte -- -- 0 951.2 1.2 65
2019-09-23 00:00:00 15.2 5 Este 8 Este 0 950.9 1.7 61
2019-09-22 23:00:00 16.7 4 Norte 17 Noroeste 0 950.8 2.4 55
2019-09-22 22:00:00 18.9 14 Noroeste 22 Oeste 0 950 2.1 48
2019-09-22 21:00:00 19.8 16 Oeste 26 Noroeste 0 949.2 1.7 44
2019-09-22 20:00:00 21 16 Noroeste 26 Noroeste 0 948.4 1.1 41
2019-09-22 19:00:00 22.5 15 Oeste 32 Oeste 0 947.9 0.6 39
2019-09-22 18:00:00 23.3 17 Oeste 30 Noroeste 0 947.5 0.3 39
2019-09-22 17:00:00 23.4 18 Oeste 32 Sudoeste 0 947.3 -0.1 38
2019-09-22 16:00:00 23.5 23 Sudoeste 37 Sudoeste 0 947.3 -0.1 38
2019-09-22 15:00:00 22.9 19 Sudoeste 37 Sudoeste 0 947.2 -0.2 45
2019-09-22 14:00:00 21.7 23 Sudoeste 42 Oeste 0 947.4 0 46
2019-09-22 13:00:00 21 21 Sudoeste 39 Sudoeste 0 947.4 0.4 59
2019-09-22 12:00:00 20.3 24 Sudoeste 39 Sudoeste 0 947.4 1 64
2019-09-22 11:00:00 19.3 15 Sudoeste 41 Sudoeste 0 947.4 1.3 77
2019-09-22 10:00:00 18.3 17 Sudoeste 30 Sudoeste 0 947 1.2 85
2019-09-22 09:00:00 17.4 12 Sur 21 Sur 0 946.4 1 93
2019-09-22 08:00:00 16.9 9 Sur 15 Sur 1.3 946.1 0.4 94
2019-09-22 07:00:00 17.1 10 Sur 13 Sur 0.9 945.8 0.2 92
2019-09-22 06:00:00 17.5 9 Sudeste 21 Sur 0 945.4 -0.4 89
2019-09-22 05:00:00 17.6 14 Sur 26 Sur 0 945.7 -0.3 87
2019-09-22 04:00:00 18.2 18 Sur 24 Sur 0 945.6 -0.7 79
2019-09-22 03:00:00 18.3 17 Sur 24 Sur 0 945.8 -0.7 83
2019-09-22 02:00:00 18.2 7 Sudeste 13 Sudeste 0 946 -0.5 90
2019-09-22 01:00:00 17.9 8 Sudeste 11 Sudeste 0 946.3 -0.1 91
2019-09-22 00:00:00 18.2 5 Este 8 Oeste 0.1 946.5 0.6 88
2019-09-21 23:00:00 18.5 4 Oeste 13 Oeste 0 946.5 0.9 85
2019-09-21 22:00:00 18.7 11 Noroeste 15 Noroeste 0 946.4 0.8 85
2019-09-21 21:00:00 19.1 9 Norte 15 Oeste 0 945.9 0.2 83
2019-09-21 20:00:00 20.1 12 Noroeste 15 Noroeste 0 945.6 -0.1 79
2019-09-21 19:00:00 20.6 6 Oeste 35 Sudoeste 0 945.6 -0.6 73
2019-09-21 18:00:00 21 14 Sur 35 Sur 0.1 945.7 -0.8 72
2019-09-21 17:00:00 21.7 12 Sur 37 Sudoeste 0 945.7 -1.3 67
2019-09-21 16:00:00 21.3 11 Sur 33 Sur 0 946.2 -1 68
2019-09-21 15:00:00 21.6 10 Sur 28 Sudoeste 0 946.5 -0.9 62
2019-09-21 14:00:00 20.9 15 Sur 32 Sudoeste 0 947 -0.4 65
2019-09-21 13:00:00 20.7 18 Sur 42 Sur 0 947.2 0 65
2019-09-21 12:00:00 20.1 14 Sur 35 Sudoeste 0 947.4 0.2 70
2019-09-21 11:00:00 19.5 11 Sur 17 Sur 0 947.4 0.4 74
2019-09-21 10:00:00 18.3 5 Sudeste 13 Oeste 0 947.2 0.2 84
2019-09-21 09:00:00 15.8 5 Sudoeste 17 Sur 0 947.2 0.5 92
2019-09-21 08:00:00 15.6 7 Sur 18 Sudoeste 0 947 0.1 92
2019-09-21 07:00:00 15.1 3 Sudoeste 8 Sur 0 947 -0.2 96
2019-09-21 06:00:00 15.2 3 Nordeste 9 Norte 0 946.7 -0.7 95
2019-09-21 05:00:00 16.1 4 Norte 9 Norte 0 946.9 -0.6 94
2019-09-21 04:00:00 16.4 4 Noroeste 9 Noroeste 0 947.2 -0.1 93
2019-09-21 03:00:00 16.5 5 Noroeste 13 Norte 0 947.4 -0.4 91
2019-09-21 02:00:00 16.9 11 Norte 26 Oeste 0 947.5 0.4 91
2019-09-21 01:00:00 16.5 4 Nordeste 11 Norte 0 947.3 -0.6 94
2019-09-21 00:00:00 16.7 10 Norte 15 Norte 0.1 947.8 1.3 96
2019-09-20 23:00:00 16.4 0 Calma 11 Este 0.1 947.1 1.3 94
2019-09-20 22:00:00 17.7 7 Este 72 Sur 9.8 947.9 1.8 89
2019-09-20 21:00:00 23.9 26 Sur 39 Sur 0 946.5 -0.1 56
2019-09-20 20:00:00 24 17 Sur 30 Sur 0 945.8 -1.2 54
2019-09-20 19:00:00 25.4 24 Sudeste 33 Sudeste 0 946.1 -1.7 52
2019-09-20 18:00:00 25.4 25 Sudeste 33 Sudeste 0 946.6 -1.9 51
2019-09-20 17:00:00 25.5 16 Sudeste 30 Sur 0 947 -2 51
2019-09-20 16:00:00 25.1 18 Sudeste 45 Sudeste 0 947.8 -1.6 52
2019-09-20 15:00:00 24.4 15 Sudeste 22 Sur 0 948.5 -1.4 55
2019-09-20 14:00:00 23.9 14 Sudeste 26 Sur 0 949 -1.3 58
2019-09-20 13:00:00 23.4 16 Sur 24 Sur 0 949.4 -1 61
2019-09-20 12:00:00 23 13 Sudeste 24 Sudeste 0 949.9 -0.2 62
2019-09-20 11:00:00 21.1 7 Sudeste 21 Sur 0 950.3 0.7 69
2019-09-20 10:00:00 19.7 6 Sudeste 11 Sudeste 0 950.4 1.2 73
2019-09-20 09:00:00 16.9 3 Nordeste 5 Este 0 950.1 1 83
2019-09-20 08:00:00 16.7 3 Norte 8 Noroeste 0 949.6 0.4 81
2019-09-20 07:00:00 17 4 Norte 9 Norte 0 949.2 -0.3 79
2019-09-20 06:00:00 17.5 8 Noroeste 13 Noroeste 0 949.1 -0.5 78
2019-09-20 05:00:00 17.7 8 Norte 11 Norte 0 949.2 -0.4 76
2019-09-20 04:00:00 17.9 8 Noroeste 11 Noroeste 0 949.5 -0.1 77
2019-09-20 03:00:00 18.4 7 Norte 11 Norte 0 949.6 -0.2 76
2019-09-20 02:00:00 19.6 5 Norte 11 Sudeste 0 949.6 0 70
2019-09-20 01:00:00 18.9 5 Norte 8 Norte 0 949.6 0.6 72
2019-09-20 00:00:00 19.8 5 Norte 11 Noroeste 0 949.8 1.5 68
2019-09-19 23:00:00 20.7 9 Noroeste 13 Norte 0 949.6 1.6 64
2019-09-19 22:00:00 21.9 11 Norte 15 Noroeste 0 949 1.5 59
2019-09-19 21:00:00 23 11 Noroeste 21 Norte 0 948.3 0.5 55
2019-09-19 20:00:00 25.3 18 Norte 26 Norte 0 948 0 47
2019-09-19 19:00:00 28.8 11 Sudeste 21 Sur 0 947.5 -1 33
2019-09-19 18:00:00 28.9 10 Sudeste 26 Sudeste 0 947.8 -1.4 32
2019-09-19 17:00:00 29.5 10 Sur 22 Sur 0 948 -1.8 33
2019-09-19 16:00:00 28.9 10 Sudoeste 24 Sur 0 948.5 -1.8 37
2019-09-19 15:00:00 28.3 8 Sur 24 Sur 0 949.2 -1.6 38
2019-09-19 14:00:00 27.3 4 Noroeste 15 Sudoeste 0 949.8 -1.1 40
2019-09-19 13:00:00 25.4 4 Sudoeste 13 Sudoeste 0 950.3 -0.5 49
2019-09-19 12:00:00 23.3 4 Oeste 11 Oeste 0 950.8 0.5 56
2019-09-19 11:00:00 21.2 4 Nordeste 9 Norte 0 950.9 0.8 63
2019-09-19 10:00:00 18.9 5 Norte 9 Norte 0 950.8 1.1 72
2019-09-19 09:00:00 15.9 3 Norte 8 Norte 0 950.3 0.5 84
2019-09-19 08:00:00 15.4 4 Noroeste 9 Norte 0 950.1 0.3 84
2019-09-19 07:00:00 15.9 4 Norte 11 Norte 0 949.7 -0.1 81
2019-09-19 06:00:00 16.2 4 Norte 8 Norte 0 949.8 -0.4 80
2019-09-19 05:00:00 16.8 5 Norte 11 Norte 0 949.8 -0.4 77
2019-09-19 04:00:00 17.4 10 Norte 13 Norte 0 949.8 -0.5 76
2019-09-19 03:00:00 18.1 8 Norte 13 Norte 0 950.2 0.1 75
2019-09-19 02:00:00 18.4 5 Norte 8 Noroeste 0 950.2 0.3 71
2019-09-19 01:00:00 18.7 0 Calma 11 Noroeste 0 950.3 0.8 70
2019-09-19 00:00:00 19.6 9 Norte -- -- 0 950.1 1.1 64
2019-09-18 23:00:00 21 0 Calma 9 Nordeste 0 949.9 1.3 53
2019-09-18 22:00:00 22.5 3 Norte 13 Noroeste 0 949.5 1.1 50
2019-09-18 21:00:00 23.6 7 Sur 13 Sur 0 949 0.6 44
2019-09-18 20:00:00 25.6 7 Sudeste 15 Sudeste 0 948.6 0 40
2019-09-18 19:00:00 27.4 12 Sudeste 24 Sur 0 948.4 -0.6 37
2019-09-18 18:00:00 27.7 11 Sudeste 24 Sudoeste 0 948.4 -1.3 37
2019-09-18 17:00:00 28 11 Sudeste 21 Sudeste 0 948.6 -1.5 37
2019-09-18 16:00:00 27.2 13 Sudeste 21 Sur 0 949 -1.5 40
2019-09-18 15:00:00 26.6 6 Sur 17 Sur 0 949.7 -1.1 41
2019-09-18 14:00:00 25.4 6 Sudoeste 17 Sudoeste 0 950.1 -0.8 45
2019-09-18 13:00:00 23.6 6 Este 18 Sudeste 0 950.5 -0.1 52
2019-09-18 12:00:00 22.1 6 Este 15 Sudeste 0 950.8 0.8 59
2019-09-18 11:00:00 20.3 5 Este 11 Este 0 950.9 1.3 67
2019-09-18 10:00:00 17.9 6 Este 11 Este 0 950.6 1.5 77
2019-09-18 09:00:00 16.4 3 Este -- -- 0 950 0.9 86
2019-09-18 08:00:00 16.5 0 Calma 13 Norte 0 949.6 0.6 85
2019-09-18 07:00:00 16.7 9 Norte 15 Norte 0 949.1 -0.2 85
2019-09-18 06:00:00 17.4 9 Norte 13 Norte 0 949.1 -0.8 78
2019-09-18 05:00:00 16.7 5 Nordeste 13 Noroeste 0 949 -1.1 82
2019-09-18 04:00:00 16.1 6 Noroeste 9 Oeste 0 949.3 -1.6 85
2019-09-18 03:00:00 16.3 0 Calma 8 Este 0 949.9 -0.4 81
2019-09-18 02:00:00 17.3 8 Nordeste 11 Norte 0 950.1 0.8 80
2019-09-18 01:00:00 18.5 3 Oeste 17 Sur 0 950.9 1.7 74
2019-09-18 00:00:00 19.1 3 Nordeste 21 Norte 0 950.3 1.4 72
2019-09-17 23:00:00 20.2 5 Este 15 Este 0 949.3 1.5 62
2019-09-17 22:00:00 22 8 Oeste 22 Sudoeste 0 949.2 0.9 51
2019-09-17 21:00:00 22.8 21 Sudoeste 41 Oeste 0 948.9 1.1 48